sensor_id;sensor_type;location;lat;lon;timestamp;P1;durP1;ratioP1;P2;durP2;ratioP2
23262;SDS011;11800;49.830;9.922;2022-07-18T00:01:35;0.10;;;0.10;;
23262;SDS011;11800;49.830;9.922;2022-07-18T00:04:01;0.00;;;0.00;;
23262;SDS011;11800;49.830;9.922;2022-07-18T00:06:27;0.10;;;0.10;;
23262;SDS011;11800;49.830;9.922;2022-07-18T00:08:54;0.10;;;0.10;;
23262;SDS011;11800;49.830;9.922;2022-07-18T00:11:21;0.08;;;0.08;;
23262;SDS011;11800;49.830;9.922;2022-07-18T00:13:47;0.10;;;0.10;;
23262;SDS011;11800;49.830;9.922;2022-07-18T00:16:15;0.00;;;0.00;;
23262;SDS011;11800;49.830;9.922;2022-07-18T00:18:41;0.10;;;0.10;;
23262;SDS011;11800;49.830;9.922;2022-07-18T00:21:07;0.10;;;0.10;;
23262;SDS011;11800;49.830;9.922;2022-07-18T00:23:33;0.10;;;0.10;;
23262;SDS011;11800;49.830;9.922;2022-07-18T00:25:59;0.10;;;0.10;;
23262;SDS011;11800;49.830;9.922;2022-07-18T00:28:26;0.10;;;0.10;;
23262;SDS011;11800;49.830;9.922;2022-07-18T00:30:52;0.10;;;0.10;;
23262;SDS011;11800;49.830;9.922;2022-07-18T00:33:18;0.08;;;0.08;;
23262;SDS011;11800;49.830;9.922;2022-07-18T00:35:44;0.08;;;0.08;;
23262;SDS011;11800;49.830;9.922;2022-07-18T00:38:10;0.00;;;0.00;;
23262;SDS011;11800;49.830;9.922;2022-07-18T00:40:36;0.03;;;0.03;;
23262;SDS011;11800;49.830;9.922;2022-07-18T00:43:02;0.00;;;0.00;;
23262;SDS011;11800;49.830;9.922;2022-07-18T00:45:28;0.05;;;0.05;;
23262;SDS011;11800;49.830;9.922;2022-07-18T00:47:54;0.08;;;0.08;;
23262;SDS011;11800;49.830;9.922;2022-07-18T00:50:21;0.10;;;0.10;;
23262;SDS011;11800;49.830;9.922;2022-07-18T00:52:47;0.10;;;0.10;;
23262;SDS011;11800;49.830;9.922;2022-07-18T00:55:13;0.10;;;0.10;;
23262;SDS011;11800;49.830;9.922;2022-07-18T00:57:40;0.10;;;0.10;;
23262;SDS011;11800;49.830;9.922;2022-07-18T01:00:07;0.08;;;0.08;;
23262;SDS011;11800;49.830;9.922;2022-07-18T01:02:52;0.10;;;0.10;;
23262;SDS011;11800;49.830;9.922;2022-07-18T01:05:18;0.10;;;0.10;;
23262;SDS011;11800;49.830;9.922;2022-07-18T01:07:44;0.00;;;0.00;;
23262;SDS011;11800;49.830;9.922;2022-07-18T01:10:11;0.00;;;0.00;;
23262;SDS011;11800;49.830;9.922;2022-07-18T01:12:37;0.10;;;0.10;;
23262;SDS011;11800;49.830;9.922;2022-07-18T01:15:03;0.05;;;0.05;;
23262;SDS011;11800;49.830;9.922;2022-07-18T01:17:30;0.10;;;0.10;;
23262;SDS011;11800;49.830;9.922;2022-07-18T01:19:56;0.10;;;0.10;;
23262;SDS011;11800;49.830;9.922;2022-07-18T01:22:22;0.00;;;0.00;;
23262;SDS011;11800;49.830;9.922;2022-07-18T01:24:48;0.10;;;0.10;;
23262;SDS011;11800;49.830;9.922;2022-07-18T01:27:15;0.10;;;0.10;;
23262;SDS011;11800;49.830;9.922;2022-07-18T01:29:42;0.10;;;0.10;;
23262;SDS011;11800;49.830;9.922;2022-07-18T01:32:08;0.00;;;0.00;;
23262;SDS011;11800;49.830;9.922;2022-07-18T01:34:35;0.10;;;0.10;;
23262;SDS011;11800;49.830;9.922;2022-07-18T01:37:01;0.10;;;0.10;;
23262;SDS011;11800;49.830;9.922;2022-07-18T01:39:28;0.00;;;0.00;;
23262;SDS011;11800;49.830;9.922;2022-07-18T01:41:57;0.00;;;0.00;;
23262;SDS011;11800;49.830;9.922;2022-07-18T01:44:24;0.00;;;0.00;;
23262;SDS011;11800;49.830;9.922;2022-07-18T01:46:51;0.10;;;0.10;;
23262;SDS011;11800;49.830;9.922;2022-07-18T01:49:17;0.10;;;0.10;;
23262;SDS011;11800;49.830;9.922;2022-07-18T01:51:44;0.10;;;0.10;;
23262;SDS011;11800;49.830;9.922;2022-07-18T01:54:11;0.10;;;0.10;;
23262;SDS011;11800;49.830;9.922;2022-07-18T01:56:37;0.03;;;0.03;;
23262;SDS011;11800;49.830;9.922;2022-07-18T01:59:03;0.10;;;0.10;;
23262;SDS011;11800;49.830;9.922;2022-07-18T02:01:29;0.00;;;0.00;;
23262;SDS011;11800;49.830;9.922;2022-07-18T02:03:55;0.10;;;0.10;;
23262;SDS011;11800;49.830;9.922;2022-07-18T02:06:21;0.10;;;0.10;;
23262;SDS011;11800;49.830;9.922;2022-07-18T02:08:47;0.10;;;0.10;;
23262;SDS011;11800;49.830;9.922;2022-07-18T02:11:13;0.10;;;0.10;;
23262;SDS011;11800;49.830;9.922;2022-07-18T02:13:39;0.08;;;0.08;;
23262;SDS011;11800;49.830;9.922;2022-07-18T02:16:06;0.08;;;0.08;;
23262;SDS011;11800;49.830;9.922;2022-07-18T02:18:32;0.10;;;0.10;;
23262;SDS011;11800;49.830;9.922;2022-07-18T02:20:59;0.10;;;0.10;;
23262;SDS011;11800;49.830;9.922;2022-07-18T02:23:25;0.10;;;0.10;;
23262;SDS011;11800;49.830;9.922;2022-07-18T02:25:51;0.10;;;0.10;;
23262;SDS011;11800;49.830;9.922;2022-07-18T02:28:17;0.10;;;0.10;;
23262;SDS011;11800;49.830;9.922;2022-07-18T02:30:43;0.10;;;0.10;;
23262;SDS011;11800;49.830;9.922;2022-07-18T02:33:09;0.10;;;0.10;;
23262;SDS011;11800;49.830;9.922;2022-07-18T02:35:35;0.10;;;0.10;;
23262;SDS011;11800;49.830;9.922;2022-07-18T02:38:02;0.10;;;0.10;;
23262;SDS011;11800;49.830;9.922;2022-07-18T02:40:28;0.10;;;0.10;;
23262;SDS011;11800;49.830;9.922;2022-07-18T02:42:54;0.00;;;0.00;;
23262;SDS011;11800;49.830;9.922;2022-07-18T02:45:20;0.00;;;0.00;;
23262;SDS011;11800;49.830;9.922;2022-07-18T02:47:46;0.10;;;0.10;;
23262;SDS011;11800;49.830;9.922;2022-07-18T02:50:12;0.10;;;0.10;;
23262;SDS011;11800;49.830;9.922;2022-07-18T02:52:38;0.10;;;0.10;;
23262;SDS011;11800;49.830;9.922;2022-07-18T02:55:05;0.00;;;0.00;;
23262;SDS011;11800;49.830;9.922;2022-07-18T02:57:32;0.10;;;0.10;;
23262;SDS011;11800;49.830;9.922;2022-07-18T02:59:58;0.10;;;0.10;;
23262;SDS011;11800;49.830;9.922;2022-07-18T03:02:24;0.00;;;0.00;;
23262;SDS011;11800;49.830;9.922;2022-07-18T03:04:50;0.10;;;0.10;;
23262;SDS011;11800;49.830;9.922;2022-07-18T03:07:17;0.00;;;0.00;;
23262;SDS011;11800;49.830;9.922;2022-07-18T03:09:43;0.10;;;0.10;;
23262;SDS011;11800;49.830;9.922;2022-07-18T03:12:09;0.10;;;0.10;;
23262;SDS011;11800;49.830;9.922;2022-07-18T03:14:35;0.10;;;0.10;;
23262;SDS011;11800;49.830;9.922;2022-07-18T03:17:01;0.10;;;0.10;;
23262;SDS011;11800;49.830;9.922;2022-07-18T03:19:27;0.10;;;0.10;;
23262;SDS011;11800;49.830;9.922;2022-07-18T03:21:53;0.03;;;0.03;;
23262;SDS011;11800;49.830;9.922;2022-07-18T03:24:19;0.05;;;0.05;;
23262;SDS011;11800;49.830;9.922;2022-07-18T03:26:45;0.00;;;0.00;;
23262;SDS011;11800;49.830;9.922;2022-07-18T03:29:11;0.10;;;0.10;;
23262;SDS011;11800;49.830;9.922;2022-07-18T03:31:37;0.10;;;0.10;;
23262;SDS011;11800;49.830;9.922;2022-07-18T03:34:04;0.10;;;0.10;;
23262;SDS011;11800;49.830;9.922;2022-07-18T03:36:30;0.10;;;0.10;;
23262;SDS011;11800;49.830;9.922;2022-07-18T03:38:56;0.10;;;0.10;;
23262;SDS011;11800;49.830;9.922;2022-07-18T03:41:22;0.10;;;0.10;;
23262;SDS011;11800;49.830;9.922;2022-07-18T03:43:48;0.10;;;0.10;;
23262;SDS011;11800;49.830;9.922;2022-07-18T03:46:14;0.10;;;0.10;;
23262;SDS011;11800;49.830;9.922;2022-07-18T03:48:40;0.10;;;0.10;;
23262;SDS011;11800;49.830;9.922;2022-07-18T03:51:06;0.10;;;0.10;;
23262;SDS011;11800;49.830;9.922;2022-07-18T03:53:33;0.10;;;0.10;;
23262;SDS011;11800;49.830;9.922;2022-07-18T03:55:59;0.03;;;0.03;;
23262;SDS011;11800;49.830;9.922;2022-07-18T03:58:25;0.10;;;0.10;;
23262;SDS011;11800;49.830;9.922;2022-07-18T04:00:51;0.10;;;0.10;;
23262;SDS011;11800;49.830;9.922;2022-07-18T04:03:17;0.10;;;0.10;;
23262;SDS011;11800;49.830;9.922;2022-07-18T04:05:44;0.00;;;0.00;;
23262;SDS011;11800;49.830;9.922;2022-07-18T04:08:10;0.03;;;0.03;;
23262;SDS011;11800;49.830;9.922;2022-07-18T04:10:36;0.10;;;0.10;;
23262;SDS011;11800;49.830;9.922;2022-07-18T04:13:05;0.10;;;0.10;;
23262;SDS011;11800;49.830;9.922;2022-07-18T04:15:31;0.10;;;0.10;;
23262;SDS011;11800;49.830;9.922;2022-07-18T04:17:57;0.08;;;0.08;;
23262;SDS011;11800;49.830;9.922;2022-07-18T04:20:23;0.10;;;0.10;;
23262;SDS011;11800;49.830;9.922;2022-07-18T04:22:51;0.10;;;0.10;;
23262;SDS011;11800;49.830;9.922;2022-07-18T04:25:17;0.10;;;0.10;;
23262;SDS011;11800;49.830;9.922;2022-07-18T04:27:44;0.10;;;0.10;;
23262;SDS011;11800;49.830;9.922;2022-07-18T04:30:10;0.10;;;0.10;;
23262;SDS011;11800;49.830;9.922;2022-07-18T04:32:37;0.10;;;0.10;;
23262;SDS011;11800;49.830;9.922;2022-07-18T04:35:03;0.10;;;0.10;;
23262;SDS011;11800;49.830;9.922;2022-07-18T04:37:30;0.10;;;0.10;;
23262;SDS011;11800;49.830;9.922;2022-07-18T04:39:56;0.10;;;0.10;;
23262;SDS011;11800;49.830;9.922;2022-07-18T04:42:22;0.10;;;0.10;;
23262;SDS011;11800;49.830;9.922;2022-07-18T04:44:48;0.10;;;0.10;;
23262;SDS011;11800;49.830;9.922;2022-07-18T04:47:15;0.10;;;0.10;;
23262;SDS011;11800;49.830;9.922;2022-07-18T04:49:41;0.10;;;0.10;;
23262;SDS011;11800;49.830;9.922;2022-07-18T04:52:07;0.10;;;0.10;;
23262;SDS011;11800;49.830;9.922;2022-07-18T04:54:33;0.10;;;0.10;;
23262;SDS011;11800;49.830;9.922;2022-07-18T04:56:59;0.10;;;0.10;;
23262;SDS011;11800;49.830;9.922;2022-07-18T04:59:25;0.10;;;0.10;;
23262;SDS011;11800;49.830;9.922;2022-07-18T05:01:51;0.10;;;0.10;;
23262;SDS011;11800;49.830;9.922;2022-07-18T05:04:17;0.00;;;0.00;;
23262;SDS011;11800;49.830;9.922;2022-07-18T05:06:43;0.10;;;0.10;;
23262;SDS011;11800;49.830;9.922;2022-07-18T05:09:09;0.10;;;0.10;;
23262;SDS011;11800;49.830;9.922;2022-07-18T05:11:35;0.10;;;0.10;;
23262;SDS011;11800;49.830;9.922;2022-07-18T05:14:01;0.10;;;0.10;;
23262;SDS011;11800;49.830;9.922;2022-07-18T05:16:27;0.10;;;0.10;;
23262;SDS011;11800;49.830;9.922;2022-07-18T05:18:53;0.00;;;0.00;;
23262;SDS011;11800;49.830;9.922;2022-07-18T05:21:19;0.08;;;0.08;;
23262;SDS011;11800;49.830;9.922;2022-07-18T05:23:45;0.10;;;0.10;;
23262;SDS011;11800;49.830;9.922;2022-07-18T05:26:12;0.10;;;0.10;;
23262;SDS011;11800;49.830;9.922;2022-07-18T05:28:38;0.10;;;0.10;;
23262;SDS011;11800;49.830;9.922;2022-07-18T05:31:04;0.10;;;0.10;;
23262;SDS011;11800;49.830;9.922;2022-07-18T05:33:30;0.10;;;0.10;;
23262;SDS011;11800;49.830;9.922;2022-07-18T05:35:56;0.10;;;0.10;;
23262;SDS011;11800;49.830;9.922;2022-07-18T05:38:22;0.00;;;0.00;;
23262;SDS011;11800;49.830;9.922;2022-07-18T05:40:48;0.10;;;0.10;;
23262;SDS011;11800;49.830;9.922;2022-07-18T05:43:14;0.10;;;0.10;;
23262;SDS011;11800;49.830;9.922;2022-07-18T05:45:40;0.10;;;0.10;;
23262;SDS011;11800;49.830;9.922;2022-07-18T05:48:07;0.10;;;0.10;;
23262;SDS011;11800;49.830;9.922;2022-07-18T05:50:33;0.10;;;0.10;;
23262;SDS011;11800;49.830;9.922;2022-07-18T05:52:59;0.00;;;0.00;;
23262;SDS011;11800;49.830;9.922;2022-07-18T05:55:25;0.05;;;0.05;;
23262;SDS011;11800;49.830;9.922;2022-07-18T05:57:51;0.10;;;0.10;;
23262;SDS011;11800;49.830;9.922;2022-07-18T06:00:18;0.10;;;0.10;;
23262;SDS011;11800;49.830;9.922;2022-07-18T06:02:46;0.10;;;0.10;;
23262;SDS011;11800;49.830;9.922;2022-07-18T06:05:12;0.10;;;0.10;;
23262;SDS011;11800;49.830;9.922;2022-07-18T06:07:39;0.10;;;0.10;;
23262;SDS011;11800;49.830;9.922;2022-07-18T06:10:05;0.10;;;0.10;;
23262;SDS011;11800;49.830;9.922;2022-07-18T06:12:32;0.10;;;0.10;;
23262;SDS011;11800;49.830;9.922;2022-07-18T06:14:58;0.10;;;0.10;;
23262;SDS011;11800;49.830;9.922;2022-07-18T06:17:25;0.10;;;0.10;;
23262;SDS011;11800;49.830;9.922;2022-07-18T06:19:52;0.10;;;0.10;;
23262;SDS011;11800;49.830;9.922;2022-07-18T06:22:19;0.10;;;0.10;;
23262;SDS011;11800;49.830;9.922;2022-07-18T06:24:45;0.10;;;0.10;;
23262;SDS011;11800;49.830;9.922;2022-07-18T06:27:11;0.10;;;0.10;;
23262;SDS011;11800;49.830;9.922;2022-07-18T06:29:37;0.10;;;0.10;;
23262;SDS011;11800;49.830;9.922;2022-07-18T06:32:03;0.10;;;0.10;;
23262;SDS011;11800;49.830;9.922;2022-07-18T06:34:30;0.10;;;0.10;;
23262;SDS011;11800;49.830;9.922;2022-07-18T06:36:56;0.08;;;0.08;;
23262;SDS011;11800;49.830;9.922;2022-07-18T06:39:22;0.03;;;0.03;;
23262;SDS011;11800;49.830;9.922;2022-07-18T06:41:48;0.10;;;0.10;;
23262;SDS011;11800;49.830;9.922;2022-07-18T06:44:14;0.00;;;0.00;;
23262;SDS011;11800;49.830;9.922;2022-07-18T06:46:40;0.10;;;0.10;;
23262;SDS011;11800;49.830;9.922;2022-07-18T06:49:06;0.10;;;0.10;;
23262;SDS011;11800;49.830;9.922;2022-07-18T06:51:32;0.00;;;0.00;;
23262;SDS011;11800;49.830;9.922;2022-07-18T06:53:58;0.10;;;0.10;;
23262;SDS011;11800;49.830;9.922;2022-07-18T06:56:25;0.00;;;0.00;;
23262;SDS011;11800;49.830;9.922;2022-07-18T06:58:51;0.10;;;0.10;;
23262;SDS011;11800;49.830;9.922;2022-07-18T07:01:18;0.10;;;0.10;;
23262;SDS011;11800;49.830;9.922;2022-07-18T07:03:45;0.10;;;0.10;;
23262;SDS011;11800;49.830;9.922;2022-07-18T07:06:11;0.08;;;0.08;;
23262;SDS011;11800;49.830;9.922;2022-07-18T07:08:38;0.10;;;0.10;;
23262;SDS011;11800;49.830;9.922;2022-07-18T07:11:04;0.10;;;0.10;;
23262;SDS011;11800;49.830;9.922;2022-07-18T07:13:31;0.08;;;0.08;;
23262;SDS011;11800;49.830;9.922;2022-07-18T07:15:57;0.10;;;0.10;;
23262;SDS011;11800;49.830;9.922;2022-07-18T07:18:23;0.10;;;0.10;;
23262;SDS011;11800;49.830;9.922;2022-07-18T07:20:49;0.00;;;0.00;;
23262;SDS011;11800;49.830;9.922;2022-07-18T07:23:15;0.10;;;0.10;;
23262;SDS011;11800;49.830;9.922;2022-07-18T07:25:42;0.10;;;0.10;;
23262;SDS011;11800;49.830;9.922;2022-07-18T07:28:08;0.00;;;0.00;;
23262;SDS011;11800;49.830;9.922;2022-07-18T07:30:34;0.00;;;0.00;;
23262;SDS011;11800;49.830;9.922;2022-07-18T07:33:01;0.10;;;0.10;;
23262;SDS011;11800;49.830;9.922;2022-07-18T07:35:27;0.10;;;0.10;;
23262;SDS011;11800;49.830;9.922;2022-07-18T07:37:57;0.10;;;0.10;;
23262;SDS011;11800;49.830;9.922;2022-07-18T07:40:24;0.10;;;0.10;;
23262;SDS011;11800;49.830;9.922;2022-07-18T07:42:51;0.10;;;0.10;;
23262;SDS011;11800;49.830;9.922;2022-07-18T07:45:17;0.10;;;0.10;;
23262;SDS011;11800;49.830;9.922;2022-07-18T07:47:44;0.00;;;0.00;;
23262;SDS011;11800;49.830;9.922;2022-07-18T07:50:11;0.10;;;0.10;;
23262;SDS011;11800;49.830;9.922;2022-07-18T07:52:38;0.10;;;0.10;;
23262;SDS011;11800;49.830;9.922;2022-07-18T07:55:04;0.10;;;0.10;;
23262;SDS011;11800;49.830;9.922;2022-07-18T07:57:31;0.10;;;0.10;;
23262;SDS011;11800;49.830;9.922;2022-07-18T07:59:57;0.10;;;0.10;;
23262;SDS011;11800;49.830;9.922;2022-07-18T08:02:23;0.10;;;0.10;;
23262;SDS011;11800;49.830;9.922;2022-07-18T08:04:49;0.10;;;0.10;;
23262;SDS011;11800;49.830;9.922;2022-07-18T08:07:15;0.10;;;0.10;;
23262;SDS011;11800;49.830;9.922;2022-07-18T08:09:42;0.10;;;0.10;;
23262;SDS011;11800;49.830;9.922;2022-07-18T08:12:08;0.10;;;0.10;;
23262;SDS011;11800;49.830;9.922;2022-07-18T08:14:34;0.10;;;0.10;;
23262;SDS011;11800;49.830;9.922;2022-07-18T08:17:03;0.10;;;0.10;;
23262;SDS011;11800;49.830;9.922;2022-07-18T08:19:29;0.05;;;0.05;;
23262;SDS011;11800;49.830;9.922;2022-07-18T08:21:55;0.10;;;0.10;;
23262;SDS011;11800;49.830;9.922;2022-07-18T08:24:21;0.10;;;0.10;;
23262;SDS011;11800;49.830;9.922;2022-07-18T08:26:47;0.10;;;0.10;;
23262;SDS011;11800;49.830;9.922;2022-07-18T08:29:13;0.08;;;0.08;;
23262;SDS011;11800;49.830;9.922;2022-07-18T08:31:39;0.10;;;0.10;;
23262;SDS011;11800;49.830;9.922;2022-07-18T08:34:05;0.10;;;0.10;;
23262;SDS011;11800;49.830;9.922;2022-07-18T08:36:31;0.10;;;0.10;;
23262;SDS011;11800;49.830;9.922;2022-07-18T08:38:58;0.00;;;0.00;;
23262;SDS011;11800;49.830;9.922;2022-07-18T08:41:25;0.08;;;0.08;;
23262;SDS011;11800;49.830;9.922;2022-07-18T08:43:51;0.10;;;0.10;;
23262;SDS011;11800;49.830;9.922;2022-07-18T08:46:21;0.00;;;0.00;;
23262;SDS011;11800;49.830;9.922;2022-07-18T08:48:48;0.00;;;0.00;;
23262;SDS011;11800;49.830;9.922;2022-07-18T08:51:15;0.10;;;0.10;;
23262;SDS011;11800;49.830;9.922;2022-07-18T08:53:42;0.10;;;0.10;;
23262;SDS011;11800;49.830;9.922;2022-07-18T08:56:08;0.10;;;0.10;;
23262;SDS011;11800;49.830;9.922;2022-07-18T08:58:34;0.10;;;0.10;;
23262;SDS011;11800;49.830;9.922;2022-07-18T09:01:01;0.05;;;0.05;;
23262;SDS011;11800;49.830;9.922;2022-07-18T09:03:27;0.10;;;0.10;;
23262;SDS011;11800;49.830;9.922;2022-07-18T09:06:03;0.10;;;0.10;;
23262;SDS011;11800;49.830;9.922;2022-07-18T09:08:29;0.10;;;0.10;;
23262;SDS011;11800;49.830;9.922;2022-07-18T09:10:57;0.10;;;0.10;;
23262;SDS011;11800;49.830;9.922;2022-07-18T09:13:24;0.10;;;0.10;;
23262;SDS011;11800;49.830;9.922;2022-07-18T09:16:09;0.10;;;0.10;;
23262;SDS011;11800;49.830;9.922;2022-07-18T09:18:37;0.10;;;0.10;;
23262;SDS011;11800;49.830;9.922;2022-07-18T09:21:36;0.10;;;0.10;;
23262;SDS011;11800;49.830;9.922;2022-07-18T09:23:55;0.10;;;0.10;;
23262;SDS011;11800;49.830;9.922;2022-07-18T09:26:43;0.10;;;0.10;;
23262;SDS011;11800;49.830;9.922;2022-07-18T09:29:13;0.10;;;0.10;;
23262;SDS011;11800;49.830;9.922;2022-07-18T09:31:40;0.10;;;0.10;;
23262;SDS011;11800;49.830;9.922;2022-07-18T09:34:13;0.10;;;0.10;;
23262;SDS011;11800;49.830;9.922;2022-07-18T09:36:53;0.10;;;0.10;;
23262;SDS011;11800;49.830;9.922;2022-07-18T09:39:20;0.10;;;0.10;;
23262;SDS011;11800;49.830;9.922;2022-07-18T09:41:46;0.05;;;0.05;;
23262;SDS011;11800;49.830;9.922;2022-07-18T09:44:15;0.05;;;0.05;;
23262;SDS011;11800;49.830;9.922;2022-07-18T09:47:01;0.10;;;0.10;;
23262;SDS011;11800;49.830;9.922;2022-07-18T09:49:28;0.10;;;0.10;;
23262;SDS011;11800;49.830;9.922;2022-07-18T09:52:01;0.10;;;0.10;;
23262;SDS011;11800;49.830;9.922;2022-07-18T09:54:40;0.10;;;0.10;;
23262;SDS011;11800;49.830;9.922;2022-07-18T09:57:07;0.10;;;0.10;;
23262;SDS011;11800;49.830;9.922;2022-07-18T09:59:34;0.10;;;0.10;;
23262;SDS011;11800;49.830;9.922;2022-07-18T10:02:00;0.10;;;0.10;;
23262;SDS011;11800;49.830;9.922;2022-07-18T10:04:26;0.00;;;0.00;;
23262;SDS011;11800;49.830;9.922;2022-07-18T10:06:52;0.10;;;0.10;;
23262;SDS011;11800;49.830;9.922;2022-07-18T10:09:18;0.10;;;0.10;;
23262;SDS011;11800;49.830;9.922;2022-07-18T10:11:45;0.10;;;0.10;;
23262;SDS011;11800;49.830;9.922;2022-07-18T10:14:11;0.10;;;0.10;;
23262;SDS011;11800;49.830;9.922;2022-07-18T10:16:37;0.10;;;0.10;;
23262;SDS011;11800;49.830;9.922;2022-07-18T10:19:03;0.00;;;0.00;;
23262;SDS011;11800;49.830;9.922;2022-07-18T10:21:29;0.10;;;0.10;;
23262;SDS011;11800;49.830;9.922;2022-07-18T10:23:56;0.10;;;0.10;;
23262;SDS011;11800;49.830;9.922;2022-07-18T10:26:26;0.10;;;0.10;;
23262;SDS011;11800;49.830;9.922;2022-07-18T10:33:54;0.10;;;0.10;;
23262;SDS011;11800;49.830;9.922;2022-07-18T10:36:41;0.10;;;0.10;;
23262;SDS011;11800;49.830;9.922;2022-07-18T10:39:35;0.10;;;0.10;;
23262;SDS011;11800;49.830;9.922;2022-07-18T11:00:08;0.10;;;0.10;;
23262;SDS011;11800;49.830;9.922;2022-07-18T11:02:45;0.10;;;0.10;;
23262;SDS011;11800;49.830;9.922;2022-07-18T11:05:34;0.10;;;0.10;;
23262;SDS011;11800;49.830;9.922;2022-07-18T11:11:02;0.10;;;0.10;;
23262;SDS011;11800;49.830;9.922;2022-07-18T11:18:23;0.10;;;0.10;;
23262;SDS011;11800;49.830;9.922;2022-07-18T11:20:50;0.10;;;0.10;;
23262;SDS011;11800;49.830;9.922;2022-07-18T11:25:42;0.10;;;0.10;;
23262;SDS011;11800;49.830;9.922;2022-07-18T11:28:09;0.10;;;0.10;;
23262;SDS011;11800;49.830;9.922;2022-07-18T11:30:35;0.10;;;0.10;;
23262;SDS011;11800;49.830;9.922;2022-07-18T11:33:01;0.10;;;0.10;;
23262;SDS011;11800;49.830;9.922;2022-07-18T11:35:27;0.10;;;0.10;;
23262;SDS011;11800;49.830;9.922;2022-07-18T11:37:54;0.10;;;0.10;;
23262;SDS011;11800;49.830;9.922;2022-07-18T11:40:21;0.10;;;0.10;;
23262;SDS011;11800;49.830;9.922;2022-07-18T11:42:47;0.10;;;0.10;;
23262;SDS011;11800;49.830;9.922;2022-07-18T11:45:14;0.10;;;0.10;;
23262;SDS011;11800;49.830;9.922;2022-07-18T11:47:50;0.10;;;0.10;;
23262;SDS011;11800;49.830;9.922;2022-07-18T11:50:17;0.10;;;0.10;;
23262;SDS011;11800;49.830;9.922;2022-07-18T11:52:44;0.10;;;0.10;;
23262;SDS011;11800;49.830;9.922;2022-07-18T11:55:11;0.10;;;0.10;;
23262;SDS011;11800;49.830;9.922;2022-07-18T11:57:37;0.10;;;0.10;;
23262;SDS011;11800;49.830;9.922;2022-07-18T12:00:13;0.10;;;0.10;;
23262;SDS011;11800;49.830;9.922;2022-07-18T12:02:39;0.10;;;0.10;;
23262;SDS011;11800;49.830;9.922;2022-07-18T12:05:05;0.10;;;0.10;;
23262;SDS011;11800;49.830;9.922;2022-07-18T12:07:31;0.10;;;0.10;;
23262;SDS011;11800;49.830;9.922;2022-07-18T12:10:13;0.10;;;0.10;;
23262;SDS011;11800;49.830;9.922;2022-07-18T12:12:40;0.10;;;0.10;;
23262;SDS011;11800;49.830;9.922;2022-07-18T12:15:07;0.10;;;0.10;;
23262;SDS011;11800;49.830;9.922;2022-07-18T12:17:42;0.10;;;0.10;;
23262;SDS011;11800;49.830;9.922;2022-07-18T12:20:09;0.10;;;0.10;;
23262;SDS011;11800;49.830;9.922;2022-07-18T12:22:36;0.10;;;0.10;;
23262;SDS011;11800;49.830;9.922;2022-07-18T12:25:02;0.10;;;0.10;;
23262;SDS011;11800;49.830;9.922;2022-07-18T12:32:53;0.10;;;0.10;;
23262;SDS011;11800;49.830;9.922;2022-07-18T12:35:26;0.10;;;0.10;;
23262;SDS011;11800;49.830;9.922;2022-07-18T12:40:21;0.10;;;0.10;;
23262;SDS011;11800;49.830;9.922;2022-07-18T12:42:48;0.10;;;0.10;;
23262;SDS011;11800;49.830;9.922;2022-07-18T12:45:14;0.10;;;0.10;;
23262;SDS011;11800;49.830;9.922;2022-07-18T12:47:40;0.10;;;0.10;;
23262;SDS011;11800;49.830;9.922;2022-07-18T12:50:07;0.10;;;0.10;;
23262;SDS011;11800;49.830;9.922;2022-07-18T12:52:33;0.10;;;0.10;;
23262;SDS011;11800;49.830;9.922;2022-07-18T12:54:59;0.20;;;0.20;;
23262;SDS011;11800;49.830;9.922;2022-07-18T12:57:26;0.10;;;0.10;;
23262;SDS011;11800;49.830;9.922;2022-07-18T12:59:52;0.10;;;0.10;;
23262;SDS011;11800;49.830;9.922;2022-07-18T13:02:18;0.13;;;0.13;;
23262;SDS011;11800;49.830;9.922;2022-07-18T13:04:44;0.10;;;0.10;;
23262;SDS011;11800;49.830;9.922;2022-07-18T13:07:10;0.10;;;0.10;;
23262;SDS011;11800;49.830;9.922;2022-07-18T13:09:36;0.10;;;0.10;;
23262;SDS011;11800;49.830;9.922;2022-07-18T13:12:02;0.10;;;0.10;;
23262;SDS011;11800;49.830;9.922;2022-07-18T13:14:29;0.10;;;0.10;;
23262;SDS011;11800;49.830;9.922;2022-07-18T13:16:55;0.10;;;0.10;;
23262;SDS011;11800;49.830;9.922;2022-07-18T13:19:21;0.10;;;0.10;;
23262;SDS011;11800;49.830;9.922;2022-07-18T13:21:47;0.10;;;0.10;;
23262;SDS011;11800;49.830;9.922;2022-07-18T13:24:13;0.10;;;0.10;;
23262;SDS011;11800;49.830;9.922;2022-07-18T13:26:40;0.10;;;0.10;;
23262;SDS011;11800;49.830;9.922;2022-07-18T13:29:06;0.10;;;0.10;;
23262;SDS011;11800;49.830;9.922;2022-07-18T13:31:32;0.10;;;0.10;;
23262;SDS011;11800;49.830;9.922;2022-07-18T13:33:58;0.10;;;0.10;;
23262;SDS011;11800;49.830;9.922;2022-07-18T13:36:24;0.10;;;0.10;;
23262;SDS011;11800;49.830;9.922;2022-07-18T13:38:50;0.10;;;0.10;;
23262;SDS011;11800;49.830;9.922;2022-07-18T13:41:16;0.10;;;0.10;;
23262;SDS011;11800;49.830;9.922;2022-07-18T13:43:42;0.10;;;0.10;;
23262;SDS011;11800;49.830;9.922;2022-07-18T13:46:09;0.15;;;0.15;;
23262;SDS011;11800;49.830;9.922;2022-07-18T13:48:35;0.20;;;0.20;;
23262;SDS011;11800;49.830;9.922;2022-07-18T13:51:01;0.20;;;0.20;;
23262;SDS011;11800;49.830;9.922;2022-07-18T13:53:27;0.10;;;0.10;;
23262;SDS011;11800;49.830;9.922;2022-07-18T13:55:54;0.10;;;0.10;;
23262;SDS011;11800;49.830;9.922;2022-07-18T13:58:20;0.10;;;0.10;;
23262;SDS011;11800;49.830;9.922;2022-07-18T14:00:46;0.10;;;0.10;;
23262;SDS011;11800;49.830;9.922;2022-07-18T14:03:12;0.20;;;0.20;;
23262;SDS011;11800;49.830;9.922;2022-07-18T14:05:38;0.10;;;0.10;;
23262;SDS011;11800;49.830;9.922;2022-07-18T14:08:05;0.20;;;0.20;;
23262;SDS011;11800;49.830;9.922;2022-07-18T14:10:31;0.20;;;0.20;;
23262;SDS011;11800;49.830;9.922;2022-07-18T14:12:58;0.20;;;0.20;;
23262;SDS011;11800;49.830;9.922;2022-07-18T14:15:24;0.20;;;0.20;;
23262;SDS011;11800;49.830;9.922;2022-07-18T14:17:50;0.20;;;0.20;;
23262;SDS011;11800;49.830;9.922;2022-07-18T14:20:16;0.20;;;0.20;;
23262;SDS011;11800;49.830;9.922;2022-07-18T14:22:42;0.20;;;0.20;;
23262;SDS011;11800;49.830;9.922;2022-07-18T14:25:09;0.30;;;0.30;;
23262;SDS011;11800;49.830;9.922;2022-07-18T14:27:36;0.30;;;0.30;;
23262;SDS011;11800;49.830;9.922;2022-07-18T14:30:03;0.40;;;0.40;;
23262;SDS011;11800;49.830;9.922;2022-07-18T14:32:29;0.40;;;0.40;;
23262;SDS011;11800;49.830;9.922;2022-07-18T14:34:55;0.88;;;0.82;;
23262;SDS011;11800;49.830;9.922;2022-07-18T14:37:21;0.60;;;0.60;;
23262;SDS011;11800;49.830;9.922;2022-07-18T14:39:48;0.60;;;0.60;;
23262;SDS011;11800;49.830;9.922;2022-07-18T14:42:14;0.80;;;0.80;;
23262;SDS011;11800;49.830;9.922;2022-07-18T14:44:40;0.70;;;0.70;;
23262;SDS011;11800;49.830;9.922;2022-07-18T14:47:06;0.70;;;0.70;;
23262;SDS011;11800;49.830;9.922;2022-07-18T14:49:32;0.80;;;0.80;;
23262;SDS011;11800;49.830;9.922;2022-07-18T14:51:58;0.88;;;0.88;;
23262;SDS011;11800;49.830;9.922;2022-07-18T14:54:27;0.80;;;0.80;;
23262;SDS011;11800;49.830;9.922;2022-07-18T14:56:53;0.85;;;0.85;;
23262;SDS011;11800;49.830;9.922;2022-07-18T14:59:20;0.80;;;0.80;;
23262;SDS011;11800;49.830;9.922;2022-07-18T15:01:47;0.40;;;0.40;;
23262;SDS011;11800;49.830;9.922;2022-07-18T15:04:13;0.30;;;0.30;;
23262;SDS011;11800;49.830;9.922;2022-07-18T15:06:39;0.30;;;0.30;;
23262;SDS011;11800;49.830;9.922;2022-07-18T15:09:06;0.20;;;0.20;;
23262;SDS011;11800;49.830;9.922;2022-07-18T15:11:33;0.20;;;0.20;;
23262;SDS011;11800;49.830;9.922;2022-07-18T15:14:00;0.20;;;0.20;;
23262;SDS011;11800;49.830;9.922;2022-07-18T15:16:26;0.20;;;0.20;;
23262;SDS011;11800;49.830;9.922;2022-07-18T15:18:52;0.20;;;0.20;;
23262;SDS011;11800;49.830;9.922;2022-07-18T15:21:18;0.10;;;0.10;;
23262;SDS011;11800;49.830;9.922;2022-07-18T15:23:44;0.20;;;0.20;;
23262;SDS011;11800;49.830;9.922;2022-07-18T15:26:10;0.17;;;0.17;;
23262;SDS011;11800;49.830;9.922;2022-07-18T15:28:36;0.20;;;0.20;;